Time;durP1;ratioP1;P1;durP2;ratioP2;P2;SDS_P1;SDS_P2;PMS_P1;PMS_P2;Temp;Humidity;BMP_temperature;BMP_pressure;BME280_temperature;BME280_humidity;BME280_pressure;Samples;Min_cycle;Max_cycle;Signal;HPM_P1;HPM_P2
2023/01/03 00:00:39;;;;;;;15.43;12.52;;;;;;;;;;4972573;28;20509;-84
2023/01/03 00:03:07;;;;;;;15.35;13.00;;;;;;;;;;4990353;28;20046;-85
2023/01/03 00:05:35;;;;;;;18.08;13.00;;;;;;;;;;4990104;28;20129;-85
2023/01/03 00:08:02;;;;;;;15.18;12.07;;;;;;;;;;4990203;28;20061;-86
2023/01/03 00:10:30;;;;;;;16.55;12.88;;;;;;;;;;4972881;28;20073;-86
2023/01/03 00:12:57;;;;;;;14.85;12.57;;;;;;;;;;4974217;28;20045;-86
2023/01/03 00:15:25;;;;;;;16.23;11.85;;;;;;;;;;4973502;28;20057;-84
2023/01/03 00:17:54;;;;;;;15.13;11.77;;;;;;;;;;4973955;28;20054;-86
2023/01/03 00:20:22;;;;;;;15.48;11.98;;;;;;;;;;4977767;28;20104;-85
2023/01/03 00:22:50;;;;;;;18.65;13.20;;;;;;;;;;4971655;28;20073;-86
2023/01/03 00:25:17;;;;;;;16.40;12.65;;;;;;;;;;5000559;28;20499;-85
2023/01/03 00:27:45;;;;;;;15.55;12.05;;;;;;;;;;4978333;28;20069;-85
2023/01/03 00:30:12;;;;;;;14.23;11.68;;;;;;;;;;4977664;28;20271;-85
2023/01/03 00:32:40;;;;;;;16.27;13.10;;;;;;;;;;4996542;28;20050;-85
2023/01/03 00:35:08;;;;;;;15.27;12.30;;;;;;;;;;5005552;28;20119;-86
2023/01/03 00:37:35;;;;;;;13.93;11.88;;;;;;;;;;4991285;28;20133;-85
2023/01/03 00:40:03;;;;;;;15.20;12.38;;;;;;;;;;5006349;28;20046;-85
2023/01/03 00:43:27;;;;;;;15.05;12.57;;;;;;;;;;4989755;28;20066;-86
2023/01/03 00:45:18;;;;;;;15.52;12.25;;;;;;;;;;5005095;28;20046;-85
2023/01/03 00:47:50;;;;;;;14.68;11.68;;;;;;;;;;5001745;28;20046;-85
2023/01/03 00:50:18;;;;;;;13.65;11.57;;;;;;;;;;4991478;28;20051;-85
2023/01/03 00:52:46;;;;;;;14.13;11.13;;;;;;;;;;4992641;28;20056;-86
2023/01/03 00:55:14;;;;;;;15.15;12.38;;;;;;;;;;5002603;28;20053;-85
2023/01/03 00:57:41;;;;;;;13.20;11.02;;;;;;;;;;4976720;28;20051;-85
2023/01/03 01:00:09;;;;;;;14.05;11.13;;;;;;;;;;4993785;28;20057;-85
2023/01/03 01:02:37;;;;;;;19.80;11.75;;;;;;;;;;4976011;28;20572;-85
2023/01/03 01:05:05;;;;;;;14.82;11.73;;;;;;;;;;4993065;28;20054;-84
2023/01/03 01:07:33;;;;;;;16.38;12.27;;;;;;;;;;4975851;28;20210;-84
2023/01/03 01:10:01;;;;;;;15.75;11.55;;;;;;;;;;4993453;28;20042;-84
2023/01/03 01:12:29;;;;;;;16.23;12.40;;;;;;;;;;4993329;28;20059;-85
2023/01/03 01:14:56;;;;;;;14.35;11.48;;;;;;;;;;4975454;28;20054;-85
2023/01/03 01:17:27;;;;;;;18.92;12.02;;;;;;;;;;4975507;28;20532;-85
2023/01/03 01:19:54;;;;;;;14.30;11.23;;;;;;;;;;4988108;28;20038;-85
2023/01/03 01:22:21;;;;;;;13.70;11.07;;;;;;;;;;4975642;28;20507;-84
2023/01/03 01:24:49;;;;;;;16.88;12.02;;;;;;;;;;4990642;28;20042;-86
2023/01/03 01:27:16;;;;;;;14.32;10.88;;;;;;;;;;4975181;28;20038;-86
2023/01/03 01:29:44;;;;;;;14.38;11.35;;;;;;;;;;4992487;28;20054;-84
2023/01/03 01:32:12;;;;;;;14.25;10.38;;;;;;;;;;4992606;28;20050;-85
2023/01/03 01:34:39;;;;;;;13.10;10.73;;;;;;;;;;4975173;28;20050;-84
2023/01/03 01:37:07;;;;;;;12.63;10.50;;;;;;;;;;4991438;28;20120;-85
2023/01/03 01:39:34;;;;;;;14.23;10.27;;;;;;;;;;4959086;28;20057;-84
2023/01/03 01:45:01;;;;;;;13.75;11.85;;;;;;;;;;4962462;28;20054;-84
2023/01/03 01:47:29;;;;;;;;;;;;;;;;;;4975280;28;20528;-85
2023/01/03 01:50:04;;;;;;;13.50;10.85;;;;;;;;;;4990834;28;19936;-85
2023/01/03 01:52:33;;;;;;;14.13;11.02;;;;;;;;;;4991867;28;20065;-85
2023/01/03 01:55:02;;;;;;;13.48;11.25;;;;;;;;;;4974414;28;20058;-85
2023/01/03 01:57:30;;;;;;;14.27;11.85;;;;;;;;;;4974495;28;20049;-85
2023/01/03 01:59:59;;;;;;;12.55;10.40;;;;;;;;;;4974524;28;20046;-85
2023/01/03 02:02:26;;;;;;;12.90;10.90;;;;;;;;;;4974775;28;20096;-85
2023/01/03 02:04:55;;;;;;;12.40;10.48;;;;;;;;;;4992161;28;20103;-85
2023/01/03 02:07:23;;;;;;;14.80;10.55;;;;;;;;;;4992356;28;20575;-85
2023/01/03 02:09:55;;;;;;;12.55;10.50;;;;;;;;;;4975273;28;20046;-86
2023/01/03 02:15:20;;;;;;;12.02;10.50;;;;;;;;;;4991835;28;20383;-85
2023/01/03 02:17:59;;;;;;;13.93;10.85;;;;;;;;;;4974639;28;20125;-85
2023/01/03 02:20:26;;;;;;;11.95;10.20;;;;;;;;;;4974496;28;20052;-86
2023/01/03 02:23:15;;;;;;;12.50;9.80;;;;;;;;;;4972434;28;20049;-86
2023/01/03 02:25:46;;;;;;;13.05;11.07;;;;;;;;;;4991242;28;20046;-86
2023/01/03 02:28:13;;;;;;;12.45;10.82;;;;;;;;;;4975656;28;20057;-85
2023/01/03 02:30:50;;;;;;;16.00;11.65;;;;;;;;;;4974826;28;20642;-85
2023/01/03 02:33:27;;;;;;;13.38;11.27;;;;;;;;;;4974289;28;20081;-85
2023/01/03 02:36:07;;;;;;;12.07;10.77;;;;;;;;;;4966538;28;20137;-85
2023/01/03 02:38:53;;;;;;;13.85;11.23;;;;;;;;;;4975912;28;20049;-84
2023/01/03 02:41:26;;;;;;;11.27;9.70;;;;;;;;;;4975704;28;20049;-84
2023/01/03 02:43:59;;;;;;;11.02;9.73;;;;;;;;;;4985852;28;20050;-85
2023/01/03 02:46:29;;;;;;;13.45;10.48;;;;;;;;;;4973861;28;20050;-87
2023/01/03 02:49:00;;;;;;;11.80;10.00;;;;;;;;;;4973890;28;20042;-85
2023/01/03 02:51:31;;;;;;;12.60;11.13;;;;;;;;;;4991614;28;20057;-85
2023/01/03 02:54:00;;;;;;;12.68;10.55;;;;;;;;;;4991413;28;20046;-86
2023/01/03 02:56:30;;;;;;;12.75;10.50;;;;;;;;;;4991671;28;20054;-85
2023/01/03 02:59:02;;;;;;;15.05;11.02;;;;;;;;;;4973682;28;20093;-84
2023/01/03 03:01:30;;;;;;;12.93;11.35;;;;;;;;;;4973910;28;20600;-84
2023/01/03 03:03:59;;;;;;;13.10;11.20;;;;;;;;;;4973548;28;20057;-85
2023/01/03 03:06:32;;;;;;;12.35;10.50;;;;;;;;;;4973782;28;20451;-84
2023/01/03 03:08:59;;;;;;;14.23;10.88;;;;;;;;;;4990767;28;20050;-87
2023/01/03 03:14:25;;;;;;;15.93;11.57;;;;;;;;;;4974874;28;20050;-85
2023/01/03 03:16:54;;;;;;;13.38;9.77;;;;;;;;;;4976226;28;20070;-86
2023/01/03 03:25:08;;;;;;;;;;;;;;;;;;4988841;28;20050;-85
2023/01/03 03:30:41;;;;;;;18.20;11.95;;;;;;;;;;4951057;28;20066;-85
2023/01/03 03:33:10;;;;;;;12.80;10.70;;;;;;;;;;4989862;28;20062;-85
2023/01/03 03:35:44;;;;;;;11.30;10.07;;;;;;;;;;4988020;28;20050;-87
2023/01/03 03:38:13;;;;;;;13.48;11.00;;;;;;;;;;4972586;28;20562;-88
2023/01/03 03:46:26;;;;;;;11.40;10.25;;;;;;;;;;4972621;28;20058;-85
2023/01/03 03:51:46;;;;;;;11.98;9.85;;;;;;;;;;4989197;28;20061;-86
2023/01/03 03:54:16;;;;;;;10.07;8.98;;;;;;;;;;4972762;28;20225;-86
2023/01/03 03:56:46;;;;;;;13.73;10.80;;;;;;;;;;4989515;28;20093;-85
2023/01/03 03:59:15;;;;;;;13.13;10.57;;;;;;;;;;4992095;28;20046;-87
2023/01/03 04:01:44;;;;;;;13.43;11.15;;;;;;;;;;4991796;28;20083;-87
2023/01/03 04:04:15;;;;;;;11.93;10.68;;;;;;;;;;4990511;28;20061;-87
2023/01/03 04:06:44;;;;;;;14.90;10.95;;;;;;;;;;5012233;28;20050;-88
2023/01/03 04:09:11;;;;;;;14.68;11.63;;;;;;;;;;5016805;23;20057;-90
2023/01/03 04:11:40;;;;;;;11.88;10.50;;;;;;;;;;5025279;28;20120;-90
2023/01/03 04:14:07;;;;;;;12.00;10.43;;;;;;;;;;4992158;28;20049;-89
2023/01/03 04:16:36;;;;;;;14.93;10.88;;;;;;;;;;4986588;28;20068;-90
2023/01/03 04:19:04;;;;;;;12.30;10.68;;;;;;;;;;5005591;28;20045;-89
2023/01/03 04:21:32;;;;;;;14.52;10.52;;;;;;;;;;4992212;28;20062;-89
2023/01/03 04:23:59;;;;;;;11.43;9.63;;;;;;;;;;5010999;28;20081;-90
2023/01/03 04:26:27;;;;;;;11.73;10.38;;;;;;;;;;5001068;28;20105;-90
2023/01/03 04:28:55;;;;;;;13.25;10.98;;;;;;;;;;4983762;28;20101;-90
2023/01/03 04:31:22;;;;;;;14.20;11.25;;;;;;;;;;5007747;28;20054;-90
2023/01/03 04:33:52;;;;;;;15.05;10.57;;;;;;;;;;4995266;28;20038;-90
2023/01/03 04:36:20;;;;;;;16.75;13.40;;;;;;;;;;5010107;28;20572;-90
2023/01/03 04:38:47;;;;;;;14.63;12.15;;;;;;;;;;5010161;28;20550;-91
2023/01/03 04:41:15;;;;;;;14.73;12.65;;;;;;;;;;4992418;28;20038;-90
2023/01/03 04:44:01;;;;;;;14.30;11.35;;;;;;;;;;5008231;28;20080;-89
2023/01/03 04:46:33;;;;;;;11.98;10.25;;;;;;;;;;5008184;28;20113;-90
2023/01/03 04:49:01;;;;;;;;;;;;;;;;;;4989836;28;20038;-90
2023/01/03 04:51:31;;;;;;;13.27;11.43;;;;;;;;;;5006588;28;19925;-88
2023/01/03 04:53:59;;;;;;;14.05;11.00;;;;;;;;;;5010002;28;20050;-90
2023/01/03 04:56:30;;;;;;;13.68;10.95;;;;;;;;;;5010148;28;20076;-90
2023/01/03 04:58:59;;;;;;;12.02;10.52;;;;;;;;;;4993671;28;20045;-90
2023/01/03 05:01:27;;;;;;;13.15;10.27;;;;;;;;;;5010494;28;20042;-90
2023/01/03 05:03:59;;;;;;;13.15;10.77;;;;;;;;;;5011726;28;20053;-90
2023/01/03 05:06:33;;;;;;;17.10;12.48;;;;;;;;;;4995596;28;20132;-89
2023/01/03 05:09:27;;;;;;;14.00;11.25;;;;;;;;;;4997618;28;20543;-89
2023/01/03 05:11:55;;;;;;;14.93;12.45;;;;;;;;;;5058373;22;20054;-82
2023/01/03 05:14:22;;;;;;;13.20;11.25;;;;;;;;;;5010520;28;20041;-82
2023/01/03 05:16:50;;;;;;;15.43;12.13;;;;;;;;;;5003315;28;20181;-82
2023/01/03 05:19:19;;;;;;;12.60;11.27;;;;;;;;;;5007748;28;20069;-83
2023/01/03 05:27:19;;;;;;;14.00;10.88;;;;;;;;;;5025552;28;20050;-82
2023/01/03 05:29:47;;;;;;;16.90;12.40;;;;;;;;;;5010009;28;20373;-81
2023/01/03 05:32:14;;;;;;;10.93;9.77;;;;;;;;;;5005814;28;20113;-82
2023/01/03 05:34:42;;;;;;;13.43;11.38;;;;;;;;;;5012905;28;20462;-82
2023/01/03 05:37:09;;;;;;;19.00;14.57;;;;;;;;;;5010087;28;20045;-82
2023/01/03 05:39:37;;;;;;;17.67;14.18;;;;;;;;;;5011980;28;20042;-82
2023/01/03 05:42:05;;;;;;;15.43;12.75;;;;;;;;;;5033190;28;20477;-83
2023/01/03 05:44:33;;;;;;;15.00;12.40;;;;;;;;;;5031502;28;20060;-81
2023/01/03 05:47:01;;;;;;;16.15;13.07;;;;;;;;;;5010643;28;20120;-82
2023/01/03 05:49:29;;;;;;;12.23;10.98;;;;;;;;;;5002109;28;20114;-82
2023/01/03 05:51:56;;;;;;;15.75;12.68;;;;;;;;;;5031520;28;20045;-81
2023/01/03 05:54:24;;;;;;;14.57;12.73;;;;;;;;;;5032801;28;20057;-82
2023/01/03 05:56:51;;;;;;;15.38;12.23;;;;;;;;;;5021134;28;20181;-81
2023/01/03 05:59:19;;;;;;;12.98;11.05;;;;;;;;;;5028723;28;20056;-82
2023/01/03 06:01:47;;;;;;;12.73;10.70;;;;;;;;;;5013771;28;20052;-82
2023/01/03 06:04:15;;;;;;;12.18;10.80;;;;;;;;;;5030404;28;20053;-82
2023/01/03 06:06:42;;;;;;;13.18;10.80;;;;;;;;;;5022304;28;20492;-83
2023/01/03 06:09:10;;;;;;;14.52;12.23;;;;;;;;;;5014617;28;20045;-83
2023/01/03 06:11:39;;;;;;;13.90;11.63;;;;;;;;;;5031383;28;20054;-82
2023/01/03 06:14:07;;;;;;;21.02;18.92;;;;;;;;;;5013878;28;20057;-82
2023/01/03 06:19:23;;;;;;;12.80;11.43;;;;;;;;;;4999352;28;20055;-81
2023/01/03 06:21:51;;;;;;;16.02;13.48;;;;;;;;;;5010872;28;20082;-82
2023/01/03 06:24:18;;;;;;;20.45;12.63;;;;;;;;;;5020143;28;20068;-80
2023/01/03 06:26:46;;;;;;;16.70;13.30;;;;;;;;;;5043675;28;20080;-82
2023/01/03 06:29:16;;;;;;;17.38;12.95;;;;;;;;;;5040204;28;20053;-82
2023/01/03 06:31:43;;;;;;;15.15;12.77;;;;;;;;;;5029171;28;20397;-83
2023/01/03 06:34:11;;;;;;;17.73;13.55;;;;;;;;;;5014220;28;20665;-82
2023/01/03 06:36:38;;;;;;;20.35;16.77;;;;;;;;;;5031008;28;20072;-82
2023/01/03 06:39:07;;;;;;;19.83;12.82;;;;;;;;;;5032447;28;20050;-82
2023/01/03 06:41:35;;;;;;;16.33;12.52;;;;;;;;;;5033798;28;20050;-82
2023/01/03 06:44:02;;;;;;;12.02;10.73;;;;;;;;;;5014095;28;20038;-82
2023/01/03 06:54:57;;;;;;;13.65;11.82;;;;;;;;;;4997963;28;20060;-82
2023/01/03 06:57:24;;;;;;;13.90;11.07;;;;;;;;;;5016182;28;20114;-82
2023/01/03 06:59:54;;;;;;;14.98;11.27;;;;;;;;;;5004756;28;20073;-82
2023/01/03 07:02:22;;;;;;;13.15;11.10;;;;;;;;;;5009729;28;20051;-83
2023/01/03 07:04:49;;;;;;;13.27;11.50;;;;;;;;;;5017816;28;20517;-83
2023/01/03 07:07:17;;;;;;;16.75;12.25;;;;;;;;;;5035037;28;20578;-83
2023/01/03 07:09:45;;;;;;;14.48;12.23;;;;;;;;;;5016706;28;20049;-82
2023/01/03 07:14:59;;;;;;;21.48;17.33;;;;;;;;;;5011323;28;20056;-82
2023/01/03 07:17:27;;;;;;;17.02;14.13;;;;;;;;;;5016817;28;20119;-81
2023/01/03 07:19:54;;;;;;;18.70;15.63;;;;;;;;;;5003090;28;20053;-82
2023/01/03 07:22:22;;;;;;;17.33;15.15;;;;;;;;;;5025485;28;20053;-82
2023/01/03 07:24:49;;;;;;;18.38;14.88;;;;;;;;;;5031122;28;20573;-83
2023/01/03 07:27:17;;;;;;;16.50;14.32;;;;;;;;;;5010716;28;20111;-83
2023/01/03 07:29:44;;;;;;;20.35;15.63;;;;;;;;;;5013145;28;20331;-82
2023/01/03 07:32:12;;;;;;;19.10;14.80;;;;;;;;;;5031984;28;20072;-82
2023/01/03 07:34:39;;;;;;;18.38;14.65;;;;;;;;;;5005879;28;20041;-82
2023/01/03 07:37:07;;;;;;;15.98;14.10;;;;;;;;;;5012267;28;20053;-82
2023/01/03 07:39:35;;;;;;;18.98;14.55;;;;;;;;;;5032843;28;20103;-82
2023/01/03 07:44:48;;;;;;;17.02;13.98;;;;;;;;;;5013144;28;20045;-82
2023/01/03 07:47:16;;;;;;;17.85;12.07;;;;;;;;;;5034211;28;20077;-82
2023/01/03 07:49:43;;;;;;;13.52;12.13;;;;;;;;;;5031717;28;20050;-83
2023/01/03 07:52:11;;;;;;;15.52;11.15;;;;;;;;;;5013472;28;20046;-82
2023/01/03 07:54:38;;;;;;;13.55;11.55;;;;;;;;;;5008854;28;20077;-83
2023/01/03 07:57:06;;;;;;;16.10;12.27;;;;;;;;;;5016797;28;20073;-82
2023/01/03 07:59:33;;;;;;;16.05;12.13;;;;;;;;;;5029389;28;20071;-82
2023/01/03 08:02:01;;;;;;;13.50;12.05;;;;;;;;;;5027577;28;20050;-82
2023/01/03 08:04:28;;;;;;;14.75;12.73;;;;;;;;;;5020822;28;20045;-83
2023/01/03 08:06:56;;;;;;;15.32;12.93;;;;;;;;;;5024795;28;20049;-83
2023/01/03 08:14:56;;;;;;;15.70;13.40;;;;;;;;;;5003063;28;20081;-82
2023/01/03 08:17:24;;;;;;;16.80;14.02;;;;;;;;;;5025662;28;20053;-83
2023/01/03 08:19:51;;;;;;;15.23;12.85;;;;;;;;;;5004534;28;20052;-83
2023/01/03 08:22:19;;;;;;;15.60;13.45;;;;;;;;;;5021187;28;20049;-83
2023/01/03 08:24:46;;;;;;;15.85;13.30;;;;;;;;;;5023590;28;20069;-81
2023/01/03 08:27:14;;;;;;;13.18;11.88;;;;;;;;;;5012508;28;20045;-82
2023/01/03 08:29:44;;;;;;;13.52;11.35;;;;;;;;;;5023623;28;20050;-82
2023/01/03 08:32:12;;;;;;;14.18;12.07;;;;;;;;;;5018529;28;20103;-81
2023/01/03 08:34:43;;;;;;;15.40;12.38;;;;;;;;;;5031786;28;20049;-81
2023/01/03 08:37:12;;;;;;;12.63;11.25;;;;;;;;;;5018260;28;20061;-82
2023/01/03 08:39:56;;;;;;;14.88;12.30;;;;;;;;;;5016883;28;20517;-82
2023/01/03 08:42:24;;;;;;;18.08;11.48;;;;;;;;;;5009417;28;20099;-82
2023/01/03 08:44:56;;;;;;;14.18;12.32;;;;;;;;;;5028284;28;20042;-83
2023/01/03 08:47:23;;;;;;;15.60;11.93;;;;;;;;;;5030954;28;20392;-82
2023/01/03 08:49:51;;;;;;;14.55;12.70;;;;;;;;;;4999811;28;20422;-81
2023/01/03 08:52:18;;;;;;;14.38;12.88;;;;;;;;;;5025716;28;20403;-82
2023/01/03 08:54:46;;;;;;;15.13;11.65;;;;;;;;;;5028624;28;20096;-83
2023/01/03 08:57:13;;;;;;;16.20;13.35;;;;;;;;;;5017072;28;20049;-82
2023/01/03 08:59:41;;;;;;;16.38;11.82;;;;;;;;;;5036301;28;20061;-81
2023/01/03 09:02:09;;;;;;;14.88;11.50;;;;;;;;;;5018450;28;20056;-82
2023/01/03 09:04:36;;;;;;;13.05;11.57;;;;;;;;;;5034714;28;20475;-82
2023/01/03 09:07:04;;;;;;;14.18;11.77;;;;;;;;;;5031468;28;20068;-82
2023/01/03 09:09:31;;;;;;;13.27;11.95;;;;;;;;;;5014880;28;20049;-82
2023/01/03 09:11:59;;;;;;;15.20;12.30;;;;;;;;;;5033135;28;20141;-82
2023/01/03 09:14:29;;;;;;;17.77;11.98;;;;;;;;;;5013645;28;20049;-83
2023/01/03 09:16:56;;;;;;;13.38;11.70;;;;;;;;;;5014544;28;20052;-83
2023/01/03 09:19:25;;;;;;;28.48;22.15;;;;;;;;;;5015124;28;20056;-82
2023/01/03 09:21:52;;;;;;;14.43;11.45;;;;;;;;;;5028856;28;20045;-83
2023/01/03 09:24:20;;;;;;;14.73;12.38;;;;;;;;;;5015174;28;20056;-82
2023/01/03 09:26:47;;;;;;;13.93;12.02;;;;;;;;;;5021912;28;20486;-83
2023/01/03 09:29:21;;;;;;;15.07;11.73;;;;;;;;;;5035984;28;20045;-81
2023/01/03 09:31:49;;;;;;;17.27;12.25;;;;;;;;;;5037498;28;20136;-82
2023/01/03 09:34:18;;;;;;;15.60;12.38;;;;;;;;;;5034634;28;20087;-82
2023/01/03 09:36:45;;;;;;;12.95;11.55;;;;;;;;;;5018342;28;20263;-82
2023/01/03 09:39:15;;;;;;;13.07;11.73;;;;;;;;;;5017373;28;20041;-83
2023/01/03 09:41:43;;;;;;;18.63;11.93;;;;;;;;;;5037318;28;20143;-81
2023/01/03 09:44:11;;;;;;;13.13;11.43;;;;;;;;;;5001872;28;20038;-82
2023/01/03 09:46:39;;;;;;;13.55;12.15;;;;;;;;;;5019442;28;20053;-82
2023/01/03 09:49:07;;;;;;;13.18;11.73;;;;;;;;;;5004392;28;20499;-82
2023/01/03 10:05:55;;;;;;;11.95;10.75;;;;;;;;;;5033415;28;20096;-82
2023/01/03 10:11:29;;;;;;;14.10;11.60;;;;;;;;;;4980792;28;20051;-86
2023/01/03 10:14:12;;;;;;;34.63;26.13;;;;;;;;;;4979411;28;20571;-86
2023/01/03 10:16:58;;;;;;;14.73;12.30;;;;;;;;;;4983653;28;20050;-87
2023/01/03 10:19:28;;;;;;;12.93;10.48;;;;;;;;;;4988521;28;20042;-88
2023/01/03 10:22:09;;;;;;;12.38;11.10;;;;;;;;;;4988709;28;20081;-88
2023/01/03 10:24:45;;;;;;;13.20;11.82;;;;;;;;;;4985883;28;20066;-88
2023/01/03 10:27:20;;;;;;;13.30;11.90;;;;;;;;;;4976361;28;20039;-88
2023/01/03 10:29:50;;;;;;;15.80;12.93;;;;;;;;;;4986002;28;20046;-86
2023/01/03 10:32:17;;;;;;;13.85;12.27;;;;;;;;;;4979525;28;20125;-87
2023/01/03 10:34:44;;;;;;;14.27;11.98;;;;;;;;;;4974160;28;20512;-88
2023/01/03 10:37:16;;;;;;;16.20;12.10;;;;;;;;;;4977585;28;20109;-87
2023/01/03 10:39:44;;;;;;;14.93;12.65;;;;;;;;;;4974445;28;20561;-87
2023/01/03 10:42:17;;;;;;;12.52;11.23;;;;;;;;;;4979619;28;20047;-87
2023/01/03 10:44:59;;;;;;;13.73;11.90;;;;;;;;;;4987306;28;20174;-87
2023/01/03 10:47:27;;;;;;;18.95;15.25;;;;;;;;;;4956281;28;20042;-85
2023/01/03 10:49:59;;;;;;;20.00;14.18;;;;;;;;;;4987107;28;20039;-88
2023/01/03 10:52:31;;;;;;;15.30;12.25;;;;;;;;;;4955776;28;20051;-87
2023/01/03 10:55:00;;;;;;;15.40;11.70;;;;;;;;;;4975031;28;20097;-88
2023/01/03 10:57:47;;;;;;;13.50;11.77;;;;;;;;;;4974840;28;20051;-88
2023/01/03 11:00:31;;;;;;;12.98;11.52;;;;;;;;;;4985187;28;20134;-88
2023/01/03 11:03:09;;;;;;;13.55;11.68;;;;;;;;;;4996101;28;20080;-88
2023/01/03 11:05:38;;;;;;;14.68;12.25;;;;;;;;;;4994546;28;20081;-87
2023/01/03 11:08:14;;;;;;;13.95;12.18;;;;;;;;;;4993931;28;20050;-88
2023/01/03 11:10:55;;;;;;;14.18;12.15;;;;;;;;;;4993764;28;20050;-87
2023/01/03 11:13:23;;;;;;;12.90;11.30;;;;;;;;;;4992133;28;20085;-87
2023/01/03 11:15:54;;;;;;;13.90;11.50;;;;;;;;;;4993020;28;20050;-87
2023/01/03 11:18:22;;;;;;;12.70;11.40;;;;;;;;;;4981698;28;20110;-87
2023/01/03 11:20:52;;;;;;;13.82;11.20;;;;;;;;;;4974157;28;20409;-87
2023/01/03 11:23:31;;;;;;;14.38;10.90;;;;;;;;;;4973719;28;20041;-89
2023/01/03 11:26:17;;;;;;;11.85;10.65;;;;;;;;;;4988013;28;20055;-88
2023/01/03 11:31:42;;;;;;;15.48;11.48;;;;;;;;;;4992507;28;20130;-81
2023/01/03 11:34:16;;;;;;;13.85;11.38;;;;;;;;;;4975500;28;20050;-84
2023/01/03 11:36:43;;;;;;;12.90;11.48;;;;;;;;;;4992566;28;20133;-81
2023/01/03 11:39:19;;;;;;;15.30;12.88;;;;;;;;;;4992072;28;20122;-82
2023/01/03 11:42:05;;;;;;;16.48;12.50;;;;;;;;;;4975561;28;20511;-83
2023/01/03 11:44:33;;;;;;;18.75;12.88;;;;;;;;;;4974682;28;20050;-83
2023/01/03 11:47:09;;;;;;;14.90;12.25;;;;;;;;;;4992017;28;20438;-81
2023/01/03 11:49:36;;;;;;;15.68;12.88;;;;;;;;;;4992623;28;20419;-81
2023/01/03 11:52:27;;;;;;;15.48;13.25;;;;;;;;;;4993555;28;20568;-81
2023/01/03 11:54:58;;;;;;;13.50;12.10;;;;;;;;;;4970075;28;20042;-81
2023/01/03 11:57:45;;;;;;;18.25;13.55;;;;;;;;;;4977853;28;20049;-85
2023/01/03 12:00:27;;;;;;;16.42;13.23;;;;;;;;;;4978473;28;20100;-85
2023/01/03 12:03:01;;;;;;;17.40;15.45;;;;;;;;;;4995160;28;20054;-81
2023/01/03 12:05:46;;;;;;;15.98;12.75;;;;;;;;;;4994474;28;20049;-81
2023/01/03 12:08:35;;;;;;;15.13;11.63;;;;;;;;;;4984303;28;20082;-84
2023/01/03 12:11:02;;;;;;;14.63;12.18;;;;;;;;;;4998222;28;20126;-85
2023/01/03 12:13:40;;;;;;;13.30;11.90;;;;;;;;;;5015375;28;20050;-84
2023/01/03 12:16:23;;;;;;;15.82;11.48;;;;;;;;;;4988969;28;20065;-83
2023/01/03 12:18:56;;;;;;;14.10;11.88;;;;;;;;;;5005318;28;20073;-81
2023/01/03 12:21:30;;;;;;;13.20;11.80;;;;;;;;;;4982935;28;20050;-81
2023/01/03 12:24:01;;;;;;;13.40;11.05;;;;;;;;;;4982084;28;20134;-81
2023/01/03 12:26:29;;;;;;;14.23;11.27;;;;;;;;;;4984487;28;20082;-82
2023/01/03 12:29:16;;;;;;;13.63;12.13;;;;;;;;;;4971118;28;20475;-84
2023/01/03 12:31:48;;;;;;;17.17;12.15;;;;;;;;;;4986335;28;20625;-84
2023/01/03 12:34:15;;;;;;;13.52;11.40;;;;;;;;;;5007157;28;20125;-84
2023/01/03 12:37:01;;;;;;;14.88;11.73;;;;;;;;;;5006209;28;20131;-81
2023/01/03 12:39:54;;;;;;;12.27;10.95;;;;;;;;;;4990614;28;20127;-81
2023/01/03 12:42:26;;;;;;;13.43;11.57;;;;;;;;;;4991222;28;20070;-83
2023/01/03 12:45:09;;;;;;;12.45;11.15;;;;;;;;;;4998213;28;20050;-80
2023/01/03 12:47:39;;;;;;;13.02;11.20;;;;;;;;;;4999389;28;20061;-82
2023/01/03 12:50:17;;;;;;;12.63;11.30;;;;;;;;;;4981631;28;20109;-82
2023/01/03 12:52:48;;;;;;;13.30;10.40;;;;;;;;;;4998865;28;20057;-81
2023/01/03 12:55:22;;;;;;;13.85;11.00;;;;;;;;;;5001416;28;20711;-84
2023/01/03 12:57:56;;;;;;;13.25;10.98;;;;;;;;;;5003276;28;20054;-82
2023/01/03 13:00:35;;;;;;;10.65;9.55;;;;;;;;;;4998349;28;20050;-82
2023/01/03 13:03:06;;;;;;;11.98;9.80;;;;;;;;;;4998108;28;20050;-82
2023/01/03 13:05:42;;;;;;;14.43;9.93;;;;;;;;;;4998853;28;20042;-82
2023/01/03 13:08:15;;;;;;;10.55;9.45;;;;;;;;;;4998940;28;20070;-82
2023/01/03 13:10:45;;;;;;;9.20;8.30;;;;;;;;;;4997777;28;20050;-81
2023/01/03 13:13:17;;;;;;;9.50;8.15;;;;;;;;;;4997272;28;20046;-81
2023/01/03 13:15:46;;;;;;;8.93;8.02;;;;;;;;;;4996918;28;20069;-81
2023/01/03 13:18:20;;;;;;;9.68;8.38;;;;;;;;;;4979105;28;20470;-81
2023/01/03 13:20:54;;;;;;;9.95;8.73;;;;;;;;;;4996086;28;20105;-81
2023/01/03 13:23:30;;;;;;;11.65;9.60;;;;;;;;;;4996776;28;20046;-84
2023/01/03 13:26:09;;;;;;;8.65;7.72;;;;;;;;;;4996505;28;20074;-81
2023/01/03 13:28:37;;;;;;;8.95;8.05;;;;;;;;;;4997180;28;20050;-82
2023/01/03 13:31:17;;;;;;;8.93;8.07;;;;;;;;;;4979939;28;20125;-81
2023/01/03 13:33:54;;;;;;;9.38;8.35;;;;;;;;;;4998607;28;20106;-81
2023/01/03 13:36:22;;;;;;;7.85;7.10;;;;;;;;;;4997196;28;20044;-81
2023/01/03 13:38:50;;;;;;;8.90;8.00;;;;;;;;;;4998621;28;20145;-80
2023/01/03 13:41:37;;;;;;;7.75;7.05;;;;;;;;;;4981673;28;20058;-81
2023/01/03 13:44:21;;;;;;;8.95;8.05;;;;;;;;;;4980364;28;20054;-83
2023/01/03 13:46:49;;;;;;;10.02;7.18;;;;;;;;;;4985358;28;20054;-83
2023/01/03 13:49:18;;;;;;;7.60;6.85;;;;;;;;;;4984219;28;20120;-83
2023/01/03 13:51:49;;;;;;;;;;;;;;;;;;4990020;28;20122;-82
2023/01/03 13:54:16;;;;;;;8.25;7.45;;;;;;;;;;5011803;28;19926;-84
2023/01/03 13:56:44;;;;;;;8.55;7.43;;;;;;;;;;5015512;28;20035;-83
2023/01/03 13:59:14;;;;;;;10.73;7.60;;;;;;;;;;5011095;28;20054;-85
2023/01/03 14:01:54;;;;;;;9.02;8.07;;;;;;;;;;4981134;28;20499;-81
2023/01/03 14:04:35;;;;;;;8.75;7.88;;;;;;;;;;4992261;28;20081;-83
2023/01/03 14:07:21;;;;;;;11.27;8.75;;;;;;;;;;4967343;28;20065;-80
2023/01/03 14:09:52;;;;;;;9.25;8.35;;;;;;;;;;4995304;28;20062;-81
2023/01/03 14:12:19;;;;;;;10.68;8.65;;;;;;;;;;4998722;28;20081;-83
2023/01/03 14:14:52;;;;;;;12.18;8.85;;;;;;;;;;4984233;28;20066;-84
2023/01/03 14:17:22;;;;;;;12.20;9.10;;;;;;;;;;4989630;28;20145;-81
2023/01/03 14:19:51;;;;;;;10.30;8.80;;;;;;;;;;4967710;28;20046;-81
2023/01/03 14:22:22;;;;;;;9.98;8.57;;;;;;;;;;4975878;28;20136;-82
2023/01/03 14:24:59;;;;;;;9.90;8.63;;;;;;;;;;4978065;28;20053;-81
2023/01/03 14:27:36;;;;;;;12.18;8.45;;;;;;;;;;4967901;28;20346;-82
2023/01/03 14:30:03;;;;;;;9.52;8.57;;;;;;;;;;4997548;28;20058;-85
2023/01/03 14:32:33;;;;;;;10.05;8.68;;;;;;;;;;4974991;28;20101;-82
2023/01/03 14:35:02;;;;;;;10.88;9.75;;;;;;;;;;4980830;28;20081;-83
2023/01/03 14:37:31;;;;;;;10.95;9.57;;;;;;;;;;4965665;28;20185;-82
2023/01/03 14:40:04;;;;;;;13.02;11.27;;;;;;;;;;4981371;28;20133;-81
2023/01/03 14:42:32;;;;;;;14.57;10.55;;;;;;;;;;4977089;28;20047;-82
2023/01/03 14:45:00;;;;;;;10.93;9.75;;;;;;;;;;4971356;28;20077;-82
2023/01/03 14:47:31;;;;;;;10.15;9.05;;;;;;;;;;4975057;28;20043;-81
2023/01/03 14:49:58;;;;;;;10.82;9.73;;;;;;;;;;4969323;28;20057;-83
2023/01/03 14:52:28;;;;;;;13.15;9.63;;;;;;;;;;4977884;28;20138;-81
2023/01/03 14:54:57;;;;;;;10.60;9.43;;;;;;;;;;4991273;28;20077;-82
2023/01/03 14:57:30;;;;;;;10.32;9.15;;;;;;;;;;4969865;28;20062;-81
2023/01/03 14:59:59;;;;;;;10.70;9.60;;;;;;;;;;4978244;28;20074;-81
2023/01/03 15:02:30;;;;;;;10.65;9.20;;;;;;;;;;4993529;28;20135;-81
2023/01/03 15:05:05;;;;;;;10.57;8.68;;;;;;;;;;4994158;28;20407;-85
2023/01/03 15:07:45;;;;;;;10.48;9.27;;;;;;;;;;4961653;28;20488;-82
2023/01/03 15:10:13;;;;;;;9.15;8.23;;;;;;;;;;4995796;28;20077;-80
2023/01/03 15:12:52;;;;;;;9.40;8.18;;;;;;;;;;4971100;28;20050;-81
2023/01/03 15:15:29;;;;;;;8.80;7.93;;;;;;;;;;4980844;28;20057;-82
2023/01/03 15:17:58;;;;;;;;;;;;;;;;;;4973734;28;20054;-83
2023/01/03 15:20:34;;;;;;;10.65;8.25;;;;;;;;;;4977697;28;19906;-81
2023/01/03 15:23:02;;;;;;;10.48;8.48;;;;;;;;;;4975746;28;20026;-83
2023/01/03 15:25:34;;;;;;;30.35;18.73;;;;;;;;;;4980017;28;20099;-83
2023/01/03 15:28:01;;;;;;;;;;;;;;;;;;4985160;28;20042;-82
2023/01/03 15:30:31;;;;;;;35.80;20.45;;;;;;;;;;4987526;28;19926;-82
2023/01/03 15:32:59;;;;;;;33.75;18.30;;;;;;;;;;4990033;28;20120;-83
2023/01/03 15:35:36;;;;;;;27.30;17.92;;;;;;;;;;4989448;28;20105;-84
2023/01/03 15:38:06;;;;;;;23.92;15.65;;;;;;;;;;4966815;28;20060;-83
2023/01/03 15:40:36;;;;;;;19.55;14.45;;;;;;;;;;4969602;28;20057;-82
2023/01/03 15:43:23;;;;;;;14.15;11.27;;;;;;;;;;4978312;28;20077;-83
2023/01/03 15:46:13;;;;;;;11.18;9.50;;;;;;;;;;4971693;28;20070;-84
2023/01/03 15:48:43;;;;;;;12.45;9.82;;;;;;;;;;4986998;28;20077;-83
2023/01/03 15:51:11;;;;;;;11.48;10.07;;;;;;;;;;5002670;28;20077;-84
2023/01/03 15:53:39;;;;;;;11.55;9.88;;;;;;;;;;4987226;28;20083;-82
2023/01/03 15:56:19;;;;;;;10.68;9.60;;;;;;;;;;4985528;28;20053;-83
2023/01/03 15:58:51;;;;;;;12.05;10.85;;;;;;;;;;4983277;28;20055;-82